Portada
METAR-TAF:

METAR-TAF

Aeropuertos :

Aeropuerto Internacional de Túnez-Cartago

Túnez, Túnez

latitud: 36-50N, longitud: 010-14E, altitud: 3 m

Observación

El informe se hizo hace 21 minutos, a las 02:30 UTC
Viento 6 kt del oeste-suroeste
Temperatura 13°C
Humedad 77%
Presión 1018 hPa
Visibilidad 10 km o más
Nubes dispersas a una altura de 2600 ft

METAR: DTTA 270230Z 25006KT 9999 SCT026 13/09 Q1018

Hora: 03:51 (02:51 UTC)

Pronóstico

El informe se hizo hace 3 horas y 51 minutos, a las 23:00 UTC
Pronóstico válido del 27 a las 00 UTC al 27 a las 24 UTC
Viento 10 kt del oeste-noroeste
Visibilidad 10 km o más
Escasas nubes a una altura de 3000 ft
Evolucionando progresivamente
del 27 a las 18 UTC al 27 a las 20 UTC
Viento 4 kt del suroeste

TAF: DTTA 262300Z 2700/2724 29010KT 9999 FEW030 BECMG 2718/2720 23004KT

Observaciones y pronósticos meteorológicos de más de 4000 aeropuertos (mensajes METAR y TAF).

Los puntos amarillos y rojos representan las estaciones disponibles.

Ponga el ratón en el punto deseado para ver el nombre de la estación.

Haga clic para ver las observaciones y los pronósticos meteorológicos.

Para cambiar el mapa : haga clic en los botones verdes con una cruz de color negro para hacer un zoom, en el botón verde con un guión para alejar o en las flechas verdes para mapas adyacentes.


METAR-TAF: